EW3889 Weather Reports


Display with metric or nautical units.
time (UTC)temp
F
wind
direction
speed
MPH
gust
MPH
rain 1hr
in
rain 24hr
in
rain mn
in
humidity
%
barometer
mb
20191122091528 74 179 4.0 9.0 0.00 0.00 0.00 61 1011.6
20191122084526 72 208 0.0 3.0 0.00 0.00 0.00 64 1011.3
20191122081525 73 205 4.0 4.0 0.00 0.00 0.00 62 1011.6
20191122074526 73 226 0.0 0.0 0.00 0.00 0.00 60 1011.7
20191122071526 74 224 0.0 1.0 0.00 0.00 0.00 58 1011.8
20191122064527 75 225 0.0 1.0 0.00 0.00 0.00 57 1011.9
20191122061525 75 199 0.0 5.0 0.00 0.00 0.00 56 1012.2
20191122054525 75 232 3.0 11.0 0.00 0.00 0.00 55 1012.7
20191122051525 75 320 0.0 4.0 0.00 0.00 0.00 56 1013.0
20191122044525 75 195 4.0 4.0 0.00 0.00 0.00 56 1013.0
20191122041525 76 289 0.0 7.0 0.00 0.00 0.00 55 1013.3
20191122034525 75 224 0.0 7.0 0.00 0.00 0.00 56 1013.3
20191122031526 76 116 0.0 7.0 0.00 0.00 0.00 56 1013.6
20191122024525 76 294 7.0 10.0 0.00 0.00 0.00 57 1013.7
20191122021525 76 193 0.0 6.0 0.00 0.00 0.00 57 1013.5
20191122014525 76 300 2.0 11.0 0.00 0.00 0.00 55 1013.3
20191122011526 76 208 0.0 5.0 0.00 0.00 0.00 56 1013.2
20191122004525 76 302 0.0 4.0 0.00 0.00 0.00 56 1012.9
20191122001524 76 280 0.0 9.0 0.00 0.00 0.00 55 1012.4
20191121234524 76 285 0.0 3.0 0.00 0.00 0.00 53 1011.9
20191121231525 77 293 0.0 11.0 0.00 0.00 0.00 51 1011.6
20191121224524 78 258 0.0 1.0 0.00 0.00 0.00 50 1011.3
20191121221524 80 310 0.0 1.0 0.00 0.00 0.00 46 1011.2
20191121214524 81 345 0.0 0.0 0.00 0.00 0.00 44 1011.0
20191121211524 84 239 0.0 4.0 0.00 0.00 0.00 39 1010.9
20191121204524 85 252 0.0 6.0 0.00 0.00 0.00 38 1010.8
20191121201525 86 299 0.0 5.0 0.00 0.00 0.00 37 1011.1
20191121194524 86 17 1.0 5.0 0.00 0.00 0.00 38 1011.3
20191121191524 86 260 0.0 8.0 0.00 0.00 0.00 40 1011.6
20191121184523 86 359 0.0 11.0 0.00 0.00 0.00 39 1012.0
20191121181524 86 183 8.0 12.0 0.00 0.00 0.00 39 1012.3
20191121174523 86 30 4.0 11.0 0.00 0.00 0.00 43 1012.4
20191121171524 86 37 0.0 11.0 0.00 0.00 0.00 42 1012.8
20191121164523 85 35 0.0 9.0 0.00 0.00 0.00 48 1013.2
20191121161523 84 31 3.0 8.0 0.00 0.00 0.00 48 1013.7
20191121154523 83 314 0.0 8.0 0.00 0.00 0.00 51 1014.0
20191121151523 81 27 2.0 8.0 0.00 0.00 0.00 53 1014.6
20191121144523 80 354 2.0 12.0 0.00 0.00 0.00 54 1014.5
20191121141523 79 345 2.0 12.0 0.00 0.00 0.00 58 1014.5
20191121134523 79 305 0.0 5.0 0.00 0.00 0.00 61 1014.3
20191121131523 77 335 0.0 13.0 0.00 0.00 0.00 64 1014.0
20191121124523 76 309 0.0 12.0 0.00 0.00 0.00 66 1013.8
20191121121523 75 266 4.0 7.0 0.00 0.00 0.00 67 1013.4
20191121114523 75 308 0.0 9.0 0.00 0.00 0.00 67 1013.3
20191121111522 74 4 0.0 3.0 0.00 0.00 0.00 67 1013.0
20191121104523 74 276 4.0 8.0 0.00 0.00 0.00 66 1012.5
20191121101523 74 308 0.0 3.0 0.00 0.00 0.00 66 1012.4
20191121094522 74 345 0.0 3.0 0.00 0.00 0.00 67 1012.0